sensor_id;sensor_type;location;lat;lon;timestamp;temperature;humidity
38464;DHT22;24243;51.956;5.902;2023-04-24T00:00:12;20.30;51.20
38464;DHT22;24243;51.956;5.902;2023-04-24T00:02:44;20.30;51.20
38464;DHT22;24243;51.956;5.902;2023-04-24T00:05:14;20.30;51.20
38464;DHT22;24243;51.956;5.902;2023-04-24T00:07:41;20.30;51.30
38464;DHT22;24243;51.956;5.902;2023-04-24T00:10:07;20.20;51.20
38464;DHT22;24243;51.956;5.902;2023-04-24T00:12:33;20.20;51.20
38464;DHT22;24243;51.956;5.902;2023-04-24T00:14:59;20.20;51.20
38464;DHT22;24243;51.956;5.902;2023-04-24T00:17:26;20.20;51.20
38464;DHT22;24243;51.956;5.902;2023-04-24T00:19:51;20.20;51.20
38464;DHT22;24243;51.956;5.902;2023-04-24T00:22:24;20.20;51.20
38464;DHT22;24243;51.956;5.902;2023-04-24T00:24:50;20.20;51.20
38464;DHT22;24243;51.956;5.902;2023-04-24T00:27:16;20.20;51.20
38464;DHT22;24243;51.956;5.902;2023-04-24T00:29:41;20.20;51.20
38464;DHT22;24243;51.956;5.902;2023-04-24T00:32:07;20.20;51.20
38464;DHT22;24243;51.956;5.902;2023-04-24T00:34:33;20.20;51.30
38464;DHT22;24243;51.956;5.902;2023-04-24T00:36:59;20.20;51.30
38464;DHT22;24243;51.956;5.902;2023-04-24T00:39:24;20.20;51.20
38464;DHT22;24243;51.956;5.902;2023-04-24T00:41:51;20.20;51.30
38464;DHT22;24243;51.956;5.902;2023-04-24T00:44:16;20.20;51.30
38464;DHT22;24243;51.956;5.902;2023-04-24T00:46:42;20.20;51.30
38464;DHT22;24243;51.956;5.902;2023-04-24T00:49:08;20.20;51.30
38464;DHT22;24243;51.956;5.902;2023-04-24T00:51:34;20.20;51.30
38464;DHT22;24243;51.956;5.902;2023-04-24T00:54:00;20.20;51.30
38464;DHT22;24243;51.956;5.902;2023-04-24T00:56:27;20.20;51.30
38464;DHT22;24243;51.956;5.902;2023-04-24T00:58:54;20.20;51.30
38464;DHT22;24243;51.956;5.902;2023-04-24T01:01:21;20.10;51.30
38464;DHT22;24243;51.956;5.902;2023-04-24T01:03:49;20.10;51.30
38464;DHT22;24243;51.956;5.902;2023-04-24T01:06:15;20.10;51.30
38464;DHT22;24243;51.956;5.902;2023-04-24T01:08:41;20.10;51.30
38464;DHT22;24243;51.956;5.902;2023-04-24T01:11:07;20.10;51.30
38464;DHT22;24243;51.956;5.902;2023-04-24T01:13:33;20.10;51.30
38464;DHT22;24243;51.956;5.902;2023-04-24T01:15:59;20.10;51.30
38464;DHT22;24243;51.956;5.902;2023-04-24T01:18:26;20.10;51.30
38464;DHT22;24243;51.956;5.902;2023-04-24T01:20:56;20.10;51.30
38464;DHT22;24243;51.956;5.902;2023-04-24T01:23:22;20.10;51.30
38464;DHT22;24243;51.956;5.902;2023-04-24T01:25:49;20.10;51.30
38464;DHT22;24243;51.956;5.902;2023-04-24T01:28:16;20.10;51.40
38464;DHT22;24243;51.956;5.902;2023-04-24T01:30:42;20.10;51.40
38464;DHT22;24243;51.956;5.902;2023-04-24T01:33:08;20.10;51.40
38464;DHT22;24243;51.956;5.902;2023-04-24T01:35:35;20.10;51.40
38464;DHT22;24243;51.956;5.902;2023-04-24T01:38:01;20.10;51.40
38464;DHT22;24243;51.956;5.902;2023-04-24T01:40:27;20.10;51.40
38464;DHT22;24243;51.956;5.902;2023-04-24T01:42:53;20.10;51.40
38464;DHT22;24243;51.956;5.902;2023-04-24T01:45:19;20.10;51.40
38464;DHT22;24243;51.956;5.902;2023-04-24T01:47:45;20.10;51.40
38464;DHT22;24243;51.956;5.902;2023-04-24T01:50:12;20.10;51.40
38464;DHT22;24243;51.956;5.902;2023-04-24T01:52:37;20.10;51.40
38464;DHT22;24243;51.956;5.902;2023-04-24T01:55:04;20.00;51.40
38464;DHT22;24243;51.956;5.902;2023-04-24T01:57:31;20.00;51.40
38464;DHT22;24243;51.956;5.902;2023-04-24T01:59:57;20.00;51.30
38464;DHT22;24243;51.956;5.902;2023-04-24T02:02:23;20.00;51.30
38464;DHT22;24243;51.956;5.902;2023-04-24T02:04:50;20.00;51.30
38464;DHT22;24243;51.956;5.902;2023-04-24T02:07:16;20.00;51.30
38464;DHT22;24243;51.956;5.902;2023-04-24T02:09:41;20.00;51.40
38464;DHT22;24243;51.956;5.902;2023-04-24T02:12:07;20.00;51.40
38464;DHT22;24243;51.956;5.902;2023-04-24T02:14:33;20.00;51.40
38464;DHT22;24243;51.956;5.902;2023-04-24T02:16:59;20.00;51.40
38464;DHT22;24243;51.956;5.902;2023-04-24T02:19:26;20.00;51.40
38464;DHT22;24243;51.956;5.902;2023-04-24T02:21:52;20.00;51.40
38464;DHT22;24243;51.956;5.902;2023-04-24T02:24:18;20.00;51.40
38464;DHT22;24243;51.956;5.902;2023-04-24T02:26:43;20.00;51.40
38464;DHT22;24243;51.956;5.902;2023-04-24T02:29:09;20.00;51.40
38464;DHT22;24243;51.956;5.902;2023-04-24T02:31:35;20.00;51.40
38464;DHT22;24243;51.956;5.902;2023-04-24T02:34:00;20.00;51.40
38464;DHT22;24243;51.956;5.902;2023-04-24T02:36:26;20.00;51.40
38464;DHT22;24243;51.956;5.902;2023-04-24T02:38:52;20.00;51.40
38464;DHT22;24243;51.956;5.902;2023-04-24T02:41:17;20.00;51.40
38464;DHT22;24243;51.956;5.902;2023-04-24T02:43:43;20.00;51.40
38464;DHT22;24243;51.956;5.902;2023-04-24T02:46:09;20.00;51.40
38464;DHT22;24243;51.956;5.902;2023-04-24T02:48:34;20.00;51.40
38464;DHT22;24243;51.956;5.902;2023-04-24T02:51:00;20.00;51.50
38464;DHT22;24243;51.956;5.902;2023-04-24T02:53:26;20.00;51.40
38464;DHT22;24243;51.956;5.902;2023-04-24T02:55:51;20.00;51.50
38464;DHT22;24243;51.956;5.902;2023-04-24T02:58:17;20.00;51.50
38464;DHT22;24243;51.956;5.902;2023-04-24T03:00:45;20.00;51.50
38464;DHT22;24243;51.956;5.902;2023-04-24T03:03:12;20.00;51.50
38464;DHT22;24243;51.956;5.902;2023-04-24T03:05:37;19.90;51.50
38464;DHT22;24243;51.956;5.902;2023-04-24T03:08:03;20.00;51.50
38464;DHT22;24243;51.956;5.902;2023-04-24T03:10:29;20.00;51.50
38464;DHT22;24243;51.956;5.902;2023-04-24T03:12:55;20.00;51.50
38464;DHT22;24243;51.956;5.902;2023-04-24T03:15:23;20.00;51.50
38464;DHT22;24243;51.956;5.902;2023-04-24T03:17:49;20.00;51.50
38464;DHT22;24243;51.956;5.902;2023-04-24T03:20:15;20.00;51.50
38464;DHT22;24243;51.956;5.902;2023-04-24T03:22:41;20.00;51.50
38464;DHT22;24243;51.956;5.902;2023-04-24T03:25:07;19.90;51.50
38464;DHT22;24243;51.956;5.902;2023-04-24T03:27:34;19.90;51.50
38464;DHT22;24243;51.956;5.902;2023-04-24T03:30:00;19.90;51.50
38464;DHT22;24243;51.956;5.902;2023-04-24T03:32:26;19.90;51.50
38464;DHT22;24243;51.956;5.902;2023-04-24T03:34:52;19.90;51.50
38464;DHT22;24243;51.956;5.902;2023-04-24T03:37:17;19.90;51.50
38464;DHT22;24243;51.956;5.902;2023-04-24T03:39:43;19.90;51.50
38464;DHT22;24243;51.956;5.902;2023-04-24T03:42:09;19.90;51.50
38464;DHT22;24243;51.956;5.902;2023-04-24T03:44:35;19.90;51.50
38464;DHT22;24243;51.956;5.902;2023-04-24T03:47:01;19.90;51.50
38464;DHT22;24243;51.956;5.902;2023-04-24T03:49:27;19.90;51.60
38464;DHT22;24243;51.956;5.902;2023-04-24T03:51:53;19.90;51.60
38464;DHT22;24243;51.956;5.902;2023-04-24T03:54:19;19.90;51.60
38464;DHT22;24243;51.956;5.902;2023-04-24T03:56:45;19.90;52.20
38464;DHT22;24243;51.956;5.902;2023-04-24T03:59:11;19.90;51.60
38464;DHT22;24243;51.956;5.902;2023-04-24T04:01:37;19.90;52.20
38464;DHT22;24243;51.956;5.902;2023-04-24T04:04:03;19.90;51.60
38464;DHT22;24243;51.956;5.902;2023-04-24T04:06:29;19.90;51.60
38464;DHT22;24243;51.956;5.902;2023-04-24T04:08:56;19.90;51.60
38464;DHT22;24243;51.956;5.902;2023-04-24T04:11:22;19.90;51.60
38464;DHT22;24243;51.956;5.902;2023-04-24T04:13:48;19.90;51.60
38464;DHT22;24243;51.956;5.902;2023-04-24T04:16:14;19.80;51.60
38464;DHT22;24243;51.956;5.902;2023-04-24T04:18:45;19.80;51.60
38464;DHT22;24243;51.956;5.902;2023-04-24T04:21:11;19.80;51.70
38464;DHT22;24243;51.956;5.902;2023-04-24T04:23:37;19.80;51.60
38464;DHT22;24243;51.956;5.902;2023-04-24T04:26:03;19.80;51.70
38464;DHT22;24243;51.956;5.902;2023-04-24T04:28:29;19.80;51.70
38464;DHT22;24243;51.956;5.902;2023-04-24T04:30:58;19.80;51.70
38464;DHT22;24243;51.956;5.902;2023-04-24T04:33:24;19.80;51.70
38464;DHT22;24243;51.956;5.902;2023-04-24T04:35:51;19.80;51.70
38464;DHT22;24243;51.956;5.902;2023-04-24T04:38:18;19.80;51.70
38464;DHT22;24243;51.956;5.902;2023-04-24T04:40:44;19.80;51.70
38464;DHT22;24243;51.956;5.902;2023-04-24T04:43:11;19.80;51.70
38464;DHT22;24243;51.956;5.902;2023-04-24T04:45:37;19.80;51.70
38464;DHT22;24243;51.956;5.902;2023-04-24T04:48:04;19.80;51.70
38464;DHT22;24243;51.956;5.902;2023-04-24T04:50:32;19.80;51.70
38464;DHT22;24243;51.956;5.902;2023-04-24T04:52:58;19.80;51.70
38464;DHT22;24243;51.956;5.902;2023-04-24T04:55:24;19.80;51.70
38464;DHT22;24243;51.956;5.902;2023-04-24T04:57:50;19.80;51.70
38464;DHT22;24243;51.956;5.902;2023-04-24T05:00:16;19.80;51.70
38464;DHT22;24243;51.956;5.902;2023-04-24T05:02:42;19.80;51.70
38464;DHT22;24243;51.956;5.902;2023-04-24T05:05:08;19.80;51.70
38464;DHT22;24243;51.956;5.902;2023-04-24T05:07:34;19.80;51.70
38464;DHT22;24243;51.956;5.902;2023-04-24T05:10:00;19.80;51.70
38464;DHT22;24243;51.956;5.902;2023-04-24T05:12:26;19.80;51.70
38464;DHT22;24243;51.956;5.902;2023-04-24T05:14:52;19.80;51.70
38464;DHT22;24243;51.956;5.902;2023-04-24T05:17:18;19.80;51.80
38464;DHT22;24243;51.956;5.902;2023-04-24T05:19:44;19.80;51.70
38464;DHT22;24243;51.956;5.902;2023-04-24T05:22:10;19.80;51.80
38464;DHT22;24243;51.956;5.902;2023-04-24T05:24:37;19.80;51.80
38464;DHT22;24243;51.956;5.902;2023-04-24T05:27:03;19.80;51.80
38464;DHT22;24243;51.956;5.902;2023-04-24T05:29:30;19.80;51.80
38464;DHT22;24243;51.956;5.902;2023-04-24T05:31:57;19.80;51.80
38464;DHT22;24243;51.956;5.902;2023-04-24T05:34:23;19.80;51.80
38464;DHT22;24243;51.956;5.902;2023-04-24T05:36:49;19.90;52.00
38464;DHT22;24243;51.956;5.902;2023-04-24T05:39:16;19.90;52.00
38464;DHT22;24243;51.956;5.902;2023-04-24T05:41:42;19.90;51.90
38464;DHT22;24243;51.956;5.902;2023-04-24T05:44:08;19.90;52.00
38464;DHT22;24243;51.956;5.902;2023-04-24T05:46:34;19.90;52.00
38464;DHT22;24243;51.956;5.902;2023-04-24T05:49:00;19.90;52.10
38464;DHT22;24243;51.956;5.902;2023-04-24T05:51:26;19.90;52.20
38464;DHT22;24243;51.956;5.902;2023-04-24T05:53:51;19.90;52.30
38464;DHT22;24243;51.956;5.902;2023-04-24T05:56:18;19.90;52.30
38464;DHT22;24243;51.956;5.902;2023-04-24T05:58:44;19.90;52.30
38464;DHT22;24243;51.956;5.902;2023-04-24T06:01:10;19.90;52.30
38464;DHT22;24243;51.956;5.902;2023-04-24T06:03:41;19.90;52.40
38464;DHT22;24243;51.956;5.902;2023-04-24T06:06:07;19.90;52.40
38464;DHT22;24243;51.956;5.902;2023-04-24T06:08:34;19.90;52.40
38464;DHT22;24243;51.956;5.902;2023-04-24T06:11:00;19.90;52.40
38464;DHT22;24243;51.956;5.902;2023-04-24T06:13:25;19.90;52.40
38464;DHT22;24243;51.956;5.902;2023-04-24T06:15:52;19.80;52.30
38464;DHT22;24243;51.956;5.902;2023-04-24T06:18:17;19.80;52.30
38464;DHT22;24243;51.956;5.902;2023-04-24T06:20:43;19.90;52.30
38464;DHT22;24243;51.956;5.902;2023-04-24T06:23:09;19.90;52.30
38464;DHT22;24243;51.956;5.902;2023-04-24T06:25:34;19.90;52.30
38464;DHT22;24243;51.956;5.902;2023-04-24T06:28:00;19.90;52.30
38464;DHT22;24243;51.956;5.902;2023-04-24T06:30:27;19.80;52.30
38464;DHT22;24243;51.956;5.902;2023-04-24T06:32:53;19.80;52.30
38464;DHT22;24243;51.956;5.902;2023-04-24T06:35:20;19.80;52.20
38464;DHT22;24243;51.956;5.902;2023-04-24T06:37:46;19.80;52.50
38464;DHT22;24243;51.956;5.902;2023-04-24T06:40:11;19.80;52.30
38464;DHT22;24243;51.956;5.902;2023-04-24T06:42:38;19.80;52.20
38464;DHT22;24243;51.956;5.902;2023-04-24T06:45:04;19.90;52.20
38464;DHT22;24243;51.956;5.902;2023-04-24T06:47:31;19.90;52.20
38464;DHT22;24243;51.956;5.902;2023-04-24T06:49:56;19.80;52.20
38464;DHT22;24243;51.956;5.902;2023-04-24T06:52:22;19.90;52.20
38464;DHT22;24243;51.956;5.902;2023-04-24T06:54:48;19.90;52.20
38464;DHT22;24243;51.956;5.902;2023-04-24T06:57:14;19.90;52.20
38464;DHT22;24243;51.956;5.902;2023-04-24T06:59:44;19.90;52.20
38464;DHT22;24243;51.956;5.902;2023-04-24T07:02:10;19.90;52.10
38464;DHT22;24243;51.956;5.902;2023-04-24T07:04:35;19.80;52.10
38464;DHT22;24243;51.956;5.902;2023-04-24T07:07:02;19.90;52.10
38464;DHT22;24243;51.956;5.902;2023-04-24T07:09:28;19.90;52.10
38464;DHT22;24243;51.956;5.902;2023-04-24T07:11:54;19.90;52.10
38464;DHT22;24243;51.956;5.902;2023-04-24T07:14:22;19.90;52.10
38464;DHT22;24243;51.956;5.902;2023-04-24T07:16:48;19.90;52.20
38464;DHT22;24243;51.956;5.902;2023-04-24T07:19:13;19.90;52.20
38464;DHT22;24243;51.956;5.902;2023-04-24T07:21:39;19.90;52.20
38464;DHT22;24243;51.956;5.902;2023-04-24T07:24:05;19.90;52.20
38464;DHT22;24243;51.956;5.902;2023-04-24T07:26:34;19.90;52.20
38464;DHT22;24243;51.956;5.902;2023-04-24T07:29:00;19.90;52.80
38464;DHT22;24243;51.956;5.902;2023-04-24T07:31:26;19.90;52.20
38464;DHT22;24243;51.956;5.902;2023-04-24T07:33:52;19.90;52.20
38464;DHT22;24243;51.956;5.902;2023-04-24T07:36:17;19.90;52.20
38464;DHT22;24243;51.956;5.902;2023-04-24T07:38:47;19.90;52.30
38464;DHT22;24243;51.956;5.902;2023-04-24T07:41:14;19.90;52.20
38464;DHT22;24243;51.956;5.902;2023-04-24T07:43:40;19.90;52.20
38464;DHT22;24243;51.956;5.902;2023-04-24T07:46:07;19.90;52.20
38464;DHT22;24243;51.956;5.902;2023-04-24T07:48:34;19.90;52.30
38464;DHT22;24243;51.956;5.902;2023-04-24T07:51:00;19.90;52.20
38464;DHT22;24243;51.956;5.902;2023-04-24T07:53:26;19.90;52.30
38464;DHT22;24243;51.956;5.902;2023-04-24T07:55:52;19.90;52.20
38464;DHT22;24243;51.956;5.902;2023-04-24T07:58:19;19.90;52.30
38464;DHT22;24243;51.956;5.902;2023-04-24T08:00:45;19.80;52.20
38464;DHT22;24243;51.956;5.902;2023-04-24T08:03:11;19.90;52.20
38464;DHT22;24243;51.956;5.902;2023-04-24T08:05:38;19.90;52.20
38464;DHT22;24243;51.956;5.902;2023-04-24T08:08:03;19.80;52.20
38464;DHT22;24243;51.956;5.902;2023-04-24T08:10:29;19.80;52.20
38464;DHT22;24243;51.956;5.902;2023-04-24T08:12:55;19.80;52.20
38464;DHT22;24243;51.956;5.902;2023-04-24T08:15:21;19.80;52.20
38464;DHT22;24243;51.956;5.902;2023-04-24T08:17:47;19.80;52.20
38464;DHT22;24243;51.956;5.902;2023-04-24T08:20:12;19.80;52.20
38464;DHT22;24243;51.956;5.902;2023-04-24T08:22:42;19.80;52.20
38464;DHT22;24243;51.956;5.902;2023-04-24T08:25:09;19.80;52.20
38464;DHT22;24243;51.956;5.902;2023-04-24T08:27:34;19.80;52.20
38464;DHT22;24243;51.956;5.902;2023-04-24T08:30:06;19.80;52.20
38464;DHT22;24243;51.956;5.902;2023-04-24T08:32:32;19.80;52.20
38464;DHT22;24243;51.956;5.902;2023-04-24T08:34:59;19.80;52.20
38464;DHT22;24243;51.956;5.902;2023-04-24T08:37:26;19.80;52.20
38464;DHT22;24243;51.956;5.902;2023-04-24T08:39:53;19.90;52.20
38464;DHT22;24243;51.956;5.902;2023-04-24T08:42:19;19.90;52.20
38464;DHT22;24243;51.956;5.902;2023-04-24T08:44:46;19.90;52.20
38464;DHT22;24243;51.956;5.902;2023-04-24T08:47:15;19.90;52.30
38464;DHT22;24243;51.956;5.902;2023-04-24T08:49:41;19.90;52.30
38464;DHT22;24243;51.956;5.902;2023-04-24T08:52:08;19.90;52.30
38464;DHT22;24243;51.956;5.902;2023-04-24T08:54:35;19.90;52.30
38464;DHT22;24243;51.956;5.902;2023-04-24T08:57:01;19.90;52.40
38464;DHT22;24243;51.956;5.902;2023-04-24T08:59:29;19.90;52.40
38464;DHT22;24243;51.956;5.902;2023-04-24T09:01:56;19.90;52.40
38464;DHT22;24243;51.956;5.902;2023-04-24T09:04:23;19.90;52.50
38464;DHT22;24243;51.956;5.902;2023-04-24T09:06:57;19.90;52.50
38464;DHT22;24243;51.956;5.902;2023-04-24T09:09:24;19.90;52.50
38464;DHT22;24243;51.956;5.902;2023-04-24T09:11:51;19.90;52.50
38464;DHT22;24243;51.956;5.902;2023-04-24T09:14:19;19.90;52.50
38464;DHT22;24243;51.956;5.902;2023-04-24T09:16:46;19.90;52.60
38464;DHT22;24243;51.956;5.902;2023-04-24T09:19:12;19.90;52.60
38464;DHT22;24243;51.956;5.902;2023-04-24T09:21:38;19.90;52.60
38464;DHT22;24243;51.956;5.902;2023-04-24T09:24:08;19.90;52.60
38464;DHT22;24243;51.956;5.902;2023-04-24T09:26:37;19.90;52.60
38464;DHT22;24243;51.956;5.902;2023-04-24T09:29:03;19.90;52.60
38464;DHT22;24243;51.956;5.902;2023-04-24T09:31:29;19.90;52.50
38464;DHT22;24243;51.956;5.902;2023-04-24T09:34:03;19.90;52.50
38464;DHT22;24243;51.956;5.902;2023-04-24T09:36:35;19.90;52.60
38464;DHT22;24243;51.956;5.902;2023-04-24T09:39:09;19.90;52.60
38464;DHT22;24243;51.956;5.902;2023-04-24T09:44:24;19.90;52.60
38464;DHT22;24243;51.956;5.902;2023-04-24T09:46:54;20.00;52.60
38464;DHT22;24243;51.956;5.902;2023-04-24T09:49:30;20.00;52.70
38464;DHT22;24243;51.956;5.902;2023-04-24T09:54:30;20.10;53.30
38464;DHT22;24243;51.956;5.902;2023-04-24T09:56:56;20.10;52.60
38464;DHT22;24243;51.956;5.902;2023-04-24T09:59:22;20.10;52.60
38464;DHT22;24243;51.956;5.902;2023-04-24T10:01:48;20.20;52.70
38464;DHT22;24243;51.956;5.902;2023-04-24T10:04:19;20.10;52.70
38464;DHT22;24243;51.956;5.902;2023-04-24T10:06:47;20.20;52.80
38464;DHT22;24243;51.956;5.902;2023-04-24T10:09:14;20.20;52.90
38464;DHT22;24243;51.956;5.902;2023-04-24T10:11:45;20.30;52.90
38464;DHT22;24243;51.956;5.902;2023-04-24T10:14:16;20.30;52.90
38464;DHT22;24243;51.956;5.902;2023-04-24T10:16:44;20.30;52.80
38464;DHT22;24243;51.956;5.902;2023-04-24T10:19:13;20.40;52.90
38464;DHT22;24243;51.956;5.902;2023-04-24T10:21:41;20.40;52.90
38464;DHT22;24243;51.956;5.902;2023-04-24T10:24:16;20.40;52.80
38464;DHT22;24243;51.956;5.902;2023-04-24T10:26:43;20.50;52.80
38464;DHT22;24243;51.956;5.902;2023-04-24T10:29:11;20.60;52.70
38464;DHT22;24243;51.956;5.902;2023-04-24T10:31:39;20.60;52.50
38464;DHT22;24243;51.956;5.902;2023-04-24T10:34:06;20.70;52.50
38464;DHT22;24243;51.956;5.902;2023-04-24T10:36:33;20.80;52.40
38464;DHT22;24243;51.956;5.902;2023-04-24T10:39:05;20.90;52.20
38464;DHT22;24243;51.956;5.902;2023-04-24T10:41:32;20.90;52.00
38464;DHT22;24243;51.956;5.902;2023-04-24T10:44:11;21.00;51.90
38464;DHT22;24243;51.956;5.902;2023-04-24T10:46:38;21.00;51.80
38464;DHT22;24243;51.956;5.902;2023-04-24T10:49:07;21.00;51.70
38464;DHT22;24243;51.956;5.902;2023-04-24T10:51:53;21.00;51.70
38464;DHT22;24243;51.956;5.902;2023-04-24T10:54:33;21.10;51.70
38464;DHT22;24243;51.956;5.902;2023-04-24T10:59:44;21.00;51.80
38464;DHT22;24243;51.956;5.902;2023-04-24T11:02:10;21.00;51.80
38464;DHT22;24243;51.956;5.902;2023-04-24T11:04:36;21.00;51.80
38464;DHT22;24243;51.956;5.902;2023-04-24T11:07:05;21.00;51.80
38464;DHT22;24243;51.956;5.902;2023-04-24T11:09:31;21.00;51.70
38464;DHT22;24243;51.956;5.902;2023-04-24T11:12:08;21.00;51.70
38464;DHT22;24243;51.956;5.902;2023-04-24T11:17:35;20.90;51.70
38464;DHT22;24243;51.956;5.902;2023-04-24T11:20:08;20.90;51.70
38464;DHT22;24243;51.956;5.902;2023-04-24T11:22:36;20.90;51.80
38464;DHT22;24243;51.956;5.902;2023-04-24T11:25:03;20.90;51.70
38464;DHT22;24243;51.956;5.902;2023-04-24T11:27:39;20.80;51.70
38464;DHT22;24243;51.956;5.902;2023-04-24T11:30:06;20.80;51.50
38464;DHT22;24243;51.956;5.902;2023-04-24T11:34:59;20.90;51.50
38464;DHT22;24243;51.956;5.902;2023-04-24T11:37:39;20.90;51.50
38464;DHT22;24243;51.956;5.902;2023-04-24T11:40:07;20.90;51.30
38464;DHT22;24243;51.956;5.902;2023-04-24T11:42:38;20.90;51.30
38464;DHT22;24243;51.956;5.902;2023-04-24T11:45:09;20.90;51.90
38464;DHT22;24243;51.956;5.902;2023-04-24T11:47:35;20.90;51.20
38464;DHT22;24243;51.956;5.902;2023-04-24T11:50:03;20.90;51.20
38464;DHT22;24243;51.956;5.902;2023-04-24T11:52:30;20.90;51.20
38464;DHT22;24243;51.956;5.902;2023-04-24T11:54:56;21.00;51.20
38464;DHT22;24243;51.956;5.902;2023-04-24T11:57:24;20.90;51.10
38464;DHT22;24243;51.956;5.902;2023-04-24T11:59:52;20.90;51.70
38464;DHT22;24243;51.956;5.902;2023-04-24T12:02:24;20.90;51.00
38464;DHT22;24243;51.956;5.902;2023-04-24T12:04:54;20.90;51.00
38464;DHT22;24243;51.956;5.902;2023-04-24T12:07:20;20.90;51.10
38464;DHT22;24243;51.956;5.902;2023-04-24T12:09:48;20.90;51.10
38464;DHT22;24243;51.956;5.902;2023-04-24T12:12:15;20.80;51.00
38464;DHT22;24243;51.956;5.902;2023-04-24T12:14:49;20.80;51.10
38464;DHT22;24243;51.956;5.902;2023-04-24T12:17:16;20.80;51.10
38464;DHT22;24243;51.956;5.902;2023-04-24T12:19:47;20.80;51.20
38464;DHT22;24243;51.956;5.902;2023-04-24T12:22:13;20.80;51.20
38464;DHT22;24243;51.956;5.902;2023-04-24T12:27:23;20.80;51.20
38464;DHT22;24243;51.956;5.902;2023-04-24T12:29:56;20.80;51.20
38464;DHT22;24243;51.956;5.902;2023-04-24T12:32:22;20.80;51.40
38464;DHT22;24243;51.956;5.902;2023-04-24T12:34:49;20.80;51.20
38464;DHT22;24243;51.956;5.902;2023-04-24T12:37:16;20.80;51.20
38464;DHT22;24243;51.956;5.902;2023-04-24T12:39:58;20.80;51.20
38464;DHT22;24243;51.956;5.902;2023-04-24T12:42:26;20.80;51.20
38464;DHT22;24243;51.956;5.902;2023-04-24T12:44:56;20.80;51.10
38464;DHT22;24243;51.956;5.902;2023-04-24T12:47:24;20.80;51.10
38464;DHT22;24243;51.956;5.902;2023-04-24T12:49:49;20.80;51.10
38464;DHT22;24243;51.956;5.902;2023-04-24T12:52:18;20.80;51.00
38464;DHT22;24243;51.956;5.902;2023-04-24T12:54:45;20.80;51.10
38464;DHT22;24243;51.956;5.902;2023-04-24T12:57:11;20.80;51.10
38464;DHT22;24243;51.956;5.902;2023-04-24T12:59:37;20.80;51.10
38464;DHT22;24243;51.956;5.902;2023-04-24T13:02:02;20.80;51.10
38464;DHT22;24243;51.956;5.902;2023-04-24T13:04:28;20.80;51.10
38464;DHT22;24243;51.956;5.902;2023-04-24T13:06:54;20.80;51.10
38464;DHT22;24243;51.956;5.902;2023-04-24T13:09:19;20.80;51.10
38464;DHT22;24243;51.956;5.902;2023-04-24T13:11:45;20.80;51.10
38464;DHT22;24243;51.956;5.902;2023-04-24T13:14:11;20.80;51.10
38464;DHT22;24243;51.956;5.902;2023-04-24T13:16:36;20.80;51.00
38464;DHT22;24243;51.956;5.902;2023-04-24T13:19:02;20.80;51.00
38464;DHT22;24243;51.956;5.902;2023-04-24T13:21:28;20.80;51.00
38464;DHT22;24243;51.956;5.902;2023-04-24T13:23:55;20.80;51.00
38464;DHT22;24243;51.956;5.902;2023-04-24T13:26:21;20.80;51.00
38464;DHT22;24243;51.956;5.902;2023-04-24T13:28:47;20.80;51.00
38464;DHT22;24243;51.956;5.902;2023-04-24T13:31:12;20.80;51.00
38464;DHT22;24243;51.956;5.902;2023-04-24T13:33:39;20.70;51.00
38464;DHT22;24243;51.956;5.902;2023-04-24T13:36:05;20.80;51.00
38464;DHT22;24243;51.956;5.902;2023-04-24T13:38:31;20.70;51.00
38464;DHT22;24243;51.956;5.902;2023-04-24T13:40:57;20.70;51.00
38464;DHT22;24243;51.956;5.902;2023-04-24T13:43:23;20.70;51.00
38464;DHT22;24243;51.956;5.902;2023-04-24T13:45:48;20.70;51.00
38464;DHT22;24243;51.956;5.902;2023-04-24T13:48:14;20.70;51.00
38464;DHT22;24243;51.956;5.902;2023-04-24T13:50:41;20.70;51.00
38464;DHT22;24243;51.956;5.902;2023-04-24T13:53:07;20.70;50.90
38464;DHT22;24243;51.956;5.902;2023-04-24T13:55:33;20.70;50.90
38464;DHT22;24243;51.956;5.902;2023-04-24T13:57:59;20.70;50.90
38464;DHT22;24243;51.956;5.902;2023-04-24T14:00:27;20.80;50.90
38464;DHT22;24243;51.956;5.902;2023-04-24T14:02:52;20.70;50.80
38464;DHT22;24243;51.956;5.902;2023-04-24T14:05:18;20.80;50.80
38464;DHT22;24243;51.956;5.902;2023-04-24T14:07:44;20.80;50.80
38464;DHT22;24243;51.956;5.902;2023-04-24T14:10:10;20.80;50.70
38464;DHT22;24243;51.956;5.902;2023-04-24T14:12:35;20.80;50.70
38464;DHT22;24243;51.956;5.902;2023-04-24T14:15:03;20.80;50.70
38464;DHT22;24243;51.956;5.902;2023-04-24T14:17:29;20.80;50.70
38464;DHT22;24243;51.956;5.902;2023-04-24T14:19:55;20.80;50.70
38464;DHT22;24243;51.956;5.902;2023-04-24T14:22:22;20.80;50.70
38464;DHT22;24243;51.956;5.902;2023-04-24T14:24:48;20.80;50.60
38464;DHT22;24243;51.956;5.902;2023-04-24T14:27:13;20.80;50.60
38464;DHT22;24243;51.956;5.902;2023-04-24T14:29:39;20.80;50.60
38464;DHT22;24243;51.956;5.902;2023-04-24T14:32:05;20.80;50.60
38464;DHT22;24243;51.956;5.902;2023-04-24T14:34:30;20.80;50.60
38464;DHT22;24243;51.956;5.902;2023-04-24T14:36:56;20.80;50.60
38464;DHT22;24243;51.956;5.902;2023-04-24T14:39:22;20.90;50.60
38464;DHT22;24243;51.956;5.902;2023-04-24T14:41:48;20.90;50.60
38464;DHT22;24243;51.956;5.902;2023-04-24T14:44:13;20.90;50.60
38464;DHT22;24243;51.956;5.902;2023-04-24T14:46:39;20.90;50.60
38464;DHT22;24243;51.956;5.902;2023-04-24T14:49:05;20.90;50.70
38464;DHT22;24243;51.956;5.902;2023-04-24T14:51:30;20.90;50.60
38464;DHT22;24243;51.956;5.902;2023-04-24T14:53:56;21.00;50.70
38464;DHT22;24243;51.956;5.902;2023-04-24T14:56:23;21.00;50.70
38464;DHT22;24243;51.956;5.902;2023-04-24T14:58:48;21.00;50.60
38464;DHT22;24243;51.956;5.902;2023-04-24T15:01:14;21.00;50.60
38464;DHT22;24243;51.956;5.902;2023-04-24T15:03:40;21.10;50.70
38464;DHT22;24243;51.956;5.902;2023-04-24T15:06:06;21.10;50.70
38464;DHT22;24243;51.956;5.902;2023-04-24T15:08:32;21.00;50.60
38464;DHT22;24243;51.956;5.902;2023-04-24T15:10:58;21.00;50.50
38464;DHT22;24243;51.956;5.902;2023-04-24T15:13:23;21.00;50.60
38464;DHT22;24243;51.956;5.902;2023-04-24T15:15:49;21.00;50.50
38464;DHT22;24243;51.956;5.902;2023-04-24T15:18:15;20.90;50.50
38464;DHT22;24243;51.956;5.902;2023-04-24T15:20:40;20.90;50.50
38464;DHT22;24243;51.956;5.902;2023-04-24T15:23:09;20.90;50.60
38464;DHT22;24243;51.956;5.902;2023-04-24T15:25:35;20.90;50.60
38464;DHT22;24243;51.956;5.902;2023-04-24T15:28:01;20.90;50.70
38464;DHT22;24243;51.956;5.902;2023-04-24T15:30:27;20.90;50.70
38464;DHT22;24243;51.956;5.902;2023-04-24T15:32:53;20.90;50.70
38464;DHT22;24243;51.956;5.902;2023-04-24T15:35:19;20.90;50.70
38464;DHT22;24243;51.956;5.902;2023-04-24T15:37:44;20.90;50.70
38464;DHT22;24243;51.956;5.902;2023-04-24T15:40:11;20.90;50.80
38464;DHT22;24243;51.956;5.902;2023-04-24T15:42:39;20.90;50.80